createdAt,value
2022-07-29T00:02:26.565Z,101954.94
2022-07-29T00:04:53.682Z,101949.66
2022-07-29T00:07:20.721Z,101954.25
2022-07-29T00:09:51.696Z,101955.00
2022-07-29T00:12:26.176Z,101960.53
2022-07-29T00:14:57.243Z,101961.31
2022-07-29T00:17:27.277Z,101954.34
2022-07-29T00:19:54.132Z,101954.09
2022-07-29T00:22:21.062Z,101946.91
2022-07-29T00:24:48.985Z,101952.03
2022-07-29T00:27:18.417Z,101955.31
2022-07-29T00:29:45.421Z,101955.38
2022-07-29T00:32:12.467Z,101952.91
2022-07-29T00:35:16.672Z,101947.47
2022-07-29T00:37:44.248Z,101945.06
2022-07-29T00:40:11.200Z,101953.03
2022-07-29T00:42:48.225Z,101954.28
2022-07-29T00:45:16.505Z,101953.91
2022-07-29T00:47:43.710Z,101950.50
2022-07-29T00:50:11.721Z,101951.69
2022-07-29T00:52:40.229Z,101953.56
2022-07-29T00:55:08.968Z,101949.53
2022-07-29T00:57:36.104Z,101941.03
2022-07-29T01:00:05.168Z,101949.25
2022-07-29T01:02:32.342Z,101939.63
2022-07-29T01:04:59.702Z,101941.78
2022-07-29T01:07:27.665Z,101945.28
2022-07-29T01:09:55.620Z,101948.63
2022-07-29T01:12:29.961Z,101947.06
2022-07-29T01:14:57.421Z,101944.50
2022-07-29T01:17:24.372Z,101943.50
2022-07-29T01:20:00.476Z,101939.63
2022-07-29T01:22:38.678Z,101932.66
2022-07-29T01:25:12.343Z,101933.44
2022-07-29T01:27:46.294Z,101925.44
2022-07-29T01:30:15.568Z,101924.66
2022-07-29T01:32:44.177Z,101923.03
2022-07-29T01:35:40.181Z,101909.78
2022-07-29T01:38:10.843Z,101912.78
2022-07-29T01:40:43.740Z,101913.75
2022-07-29T01:43:12.608Z,101916.84
2022-07-29T01:45:39.545Z,101916.69
2022-07-29T01:48:11.669Z,101918.75
2022-07-29T01:50:47.767Z,101904.44
2022-07-29T01:53:16.625Z,101898.06
2022-07-29T01:55:45.285Z,101900.41
2022-07-29T01:58:13.212Z,101895.19
2022-07-29T02:00:40.585Z,101897.47
2022-07-29T02:03:12.530Z,101886.34
2022-07-29T02:05:40.551Z,101889.47
2022-07-29T02:08:09.608Z,101885.34
2022-07-29T02:10:37.749Z,101882.09
2022-07-29T02:13:05.252Z,101868.19
2022-07-29T02:15:33.771Z,101866.44
2022-07-29T02:18:08.411Z,101860.53
2022-07-29T02:20:35.672Z,101862.69
2022-07-29T02:23:03.439Z,101857.66
2022-07-29T02:25:37.303Z,101858.44
2022-07-29T02:28:06.664Z,101852.00
2022-07-29T02:30:34.245Z,101850.38
2022-07-29T02:33:02.284Z,101852.16
2022-07-29T02:35:34.954Z,101857.59
2022-07-29T02:38:21.773Z,101860.00
2022-07-29T02:40:49.541Z,101852.31
2022-07-29T02:43:16.926Z,101866.19
2022-07-29T02:45:43.956Z,101865.19
2022-07-29T02:48:14.306Z,101861.38
2022-07-29T02:51:04.347Z,101861.44
2022-07-29T02:53:34.405Z,101872.84
2022-07-29T02:56:05.566Z,101874.13
2022-07-29T02:58:35.268Z,101873.31
2022-07-29T03:01:10.409Z,101877.06
2022-07-29T03:03:38.842Z,101878.75
2022-07-29T03:06:06.678Z,101882.41
2022-07-29T03:08:33.814Z,101885.16
2022-07-29T03:11:01.849Z,101881.69
2022-07-29T03:13:30.537Z,101879.69
2022-07-29T03:15:58.781Z,101873.63
2022-07-29T03:18:26.892Z,101878.97
2022-07-29T03:20:53.669Z,101867.66
2022-07-29T03:23:21.984Z,101878.97
2022-07-29T03:25:49.277Z,101877.56
2022-07-29T03:28:16.588Z,101872.44
2022-07-29T03:30:46.451Z,101873.38
2022-07-29T03:33:13.936Z,101886.31
2022-07-29T03:35:41.053Z,101880.25
2022-07-29T03:38:08.355Z,101888.16
2022-07-29T03:40:46.012Z,101884.53
2022-07-29T03:43:13.892Z,101878.19
2022-07-29T03:45:43.995Z,101884.69
2022-07-29T03:48:13.158Z,101877.56
2022-07-29T03:50:40.274Z,101884.25
2022-07-29T03:53:07.453Z,101887.50
2022-07-29T03:55:37.399Z,101892.56
2022-07-29T03:58:04.502Z,101887.28
2022-07-29T04:00:32.545Z,101885.22
2022-07-29T04:02:59.459Z,101887.38
2022-07-29T04:05:26.320Z,101881.47
2022-07-29T04:07:53.351Z,101885.72
2022-07-29T04:10:30.109Z,101885.31
2022-07-29T04:12:59.831Z,101876.03
2022-07-29T04:15:31.498Z,101876.22
2022-07-29T04:17:59.177Z,101881.88
2022-07-29T04:20:26.903Z,101872.50
2022-07-29T04:22:53.740Z,101879.84
2022-07-29T04:25:21.018Z,101874.22
2022-07-29T04:28:03.907Z,101865.81
2022-07-29T04:30:31.748Z,101859.41
2022-07-29T04:32:59.586Z,101865.09
2022-07-29T04:35:26.512Z,101868.66
2022-07-29T04:37:53.487Z,101868.41
2022-07-29T04:40:20.812Z,101865.91
2022-07-29T04:42:48.028Z,101866.81
2022-07-29T04:45:16.307Z,101871.38
2022-07-29T04:47:43.412Z,101875.28
2022-07-29T04:50:10.876Z,101868.78
2022-07-29T04:52:37.873Z,101875.78
2022-07-29T04:55:05.620Z,101875.31
2022-07-29T04:57:32.517Z,101876.66
2022-07-29T04:59:59.353Z,101871.75
2022-07-29T05:02:26.634Z,101874.56
2022-07-29T05:04:53.546Z,101875.78
2022-07-29T05:07:20.417Z,101865.03
2022-07-29T05:09:47.444Z,101870.41
2022-07-29T05:12:14.264Z,101870.94
2022-07-29T05:14:41.164Z,101863.16
2022-07-29T05:17:08.304Z,101865.50
2022-07-29T05:19:39.735Z,101868.41
2022-07-29T05:22:07.044Z,101870.75
2022-07-29T05:24:34.059Z,101865.38
2022-07-29T05:27:01.118Z,101865.31
2022-07-29T05:29:43.664Z,101871.38
2022-07-29T05:32:13.240Z,101868.22
2022-07-29T05:34:50.250Z,101873.22
2022-07-29T05:37:21.433Z,101865.09
2022-07-29T05:39:56.360Z,101868.41
2022-07-29T05:42:27.799Z,101869.03
2022-07-29T05:44:54.777Z,101864.03
2022-07-29T05:47:21.802Z,101869.03
2022-07-29T05:49:49.601Z,101864.34
2022-07-29T05:52:16.423Z,101854.53
2022-07-29T05:54:43.278Z,101860.84
2022-07-29T05:57:16.317Z,101860.22
2022-07-29T05:59:43.077Z,101859.25
2022-07-29T06:02:09.900Z,101851.84
2022-07-29T06:04:37.079Z,101848.22
2022-07-29T06:07:04.204Z,101846.53
2022-07-29T06:09:30.974Z,101844.09
2022-07-29T06:11:59.022Z,101840.63
2022-07-29T06:14:26.751Z,101846.59
2022-07-29T06:16:54.209Z,101849.00
2022-07-29T06:19:21.362Z,101851.78
2022-07-29T06:21:48.934Z,101852.16
2022-07-29T06:24:16.556Z,101842.94
2022-07-29T06:26:43.996Z,101842.47
2022-07-29T06:29:14.113Z,101842.50
2022-07-29T06:31:40.973Z,101838.31
2022-07-29T06:34:08.216Z,101845.78
2022-07-29T06:36:35.779Z,101848.91
2022-07-29T06:39:05.316Z,101852.13
2022-07-29T06:41:33.147Z,101850.97
2022-07-29T06:44:00.338Z,101852.06
2022-07-29T06:46:27.128Z,101860.06
2022-07-29T06:48:54.641Z,101864.56
2022-07-29T06:51:23.134Z,101865.91
2022-07-29T06:53:59.700Z,101863.03
2022-07-29T06:56:31.106Z,101866.63
2022-07-29T06:58:58.338Z,101853.69
2022-07-29T07:01:25.403Z,101856.84
2022-07-29T07:03:52.601Z,101856.75
2022-07-29T07:06:19.411Z,101865.97
2022-07-29T07:08:46.241Z,101866.84
2022-07-29T07:11:13.419Z,101868.16
2022-07-29T07:13:40.298Z,101865.34
2022-07-29T07:16:07.150Z,101859.13
2022-07-29T07:18:34.469Z,101864.44
2022-07-29T07:21:01.275Z,101860.00
2022-07-29T07:23:28.088Z,101849.28
2022-07-29T07:25:55.148Z,101848.66
2022-07-29T07:28:24.941Z,101843.97
2022-07-29T07:30:52.767Z,101846.72
2022-07-29T07:33:20.159Z,101842.47
2022-07-29T07:35:47.416Z,101841.41
2022-07-29T07:38:14.513Z,101850.38
2022-07-29T07:40:42.588Z,101851.69
2022-07-29T07:43:09.856Z,101860.09
2022-07-29T07:45:38.498Z,101854.38
2022-07-29T07:48:06.031Z,101851.25
2022-07-29T07:50:33.004Z,101844.94
2022-07-29T07:53:00.560Z,101850.84
2022-07-29T07:55:27.773Z,101857.34
2022-07-29T07:57:55.332Z,101852.38
2022-07-29T08:00:23.615Z,101848.25
2022-07-29T08:02:51.458Z,101843.38
2022-07-29T08:05:18.668Z,101843.78
2022-07-29T08:07:48.704Z,101848.63
2022-07-29T08:10:37.126Z,101849.75
2022-07-29T08:13:07.332Z,101844.41
2022-07-29T08:15:35.068Z,101853.66
2022-07-29T08:18:06.544Z,101841.69
2022-07-29T08:20:36.818Z,101843.97
2022-07-29T08:23:03.928Z,101838.66
2022-07-29T08:25:30.828Z,101835.91
2022-07-29T08:27:57.984Z,101834.19
2022-07-29T08:30:25.032Z,101827.94
2022-07-29T08:32:55.556Z,101833.25
2022-07-29T08:35:23.992Z,101832.66
2022-07-29T08:37:50.932Z,101829.00
2022-07-29T08:40:17.833Z,101826.84
2022-07-29T08:42:44.926Z,101833.94
2022-07-29T08:45:11.856Z,101829.97
2022-07-29T08:47:40.872Z,101829.47
2022-07-29T08:50:09.130Z,101830.63
2022-07-29T08:52:42.356Z,101822.41
2022-07-29T08:55:10.721Z,101823.81
2022-07-29T08:57:39.783Z,101814.03
2022-07-29T09:00:19.372Z,101821.50
2022-07-29T09:02:49.151Z,101818.97
2022-07-29T09:05:16.192Z,101816.28
2022-07-29T09:07:44.427Z,101817.50
2022-07-29T09:10:11.427Z,101819.59
2022-07-29T09:12:38.464Z,101811.34
2022-07-29T09:15:06.030Z,101817.69
2022-07-29T09:17:42.786Z,101812.13
2022-07-29T09:20:13.747Z,101815.97
2022-07-29T09:22:42.214Z,101811.63
2022-07-29T09:25:10.001Z,101806.00
2022-07-29T09:27:37.268Z,101805.19
2022-07-29T09:30:08.480Z,101807.16
2022-07-29T09:32:54.965Z,101797.69
2022-07-29T09:35:23.305Z,101783.81
2022-07-29T09:37:50.847Z,101781.88
2022-07-29T09:40:19.014Z,101788.38
2022-07-29T09:42:46.852Z,101790.28
2022-07-29T09:45:14.006Z,101782.09
2022-07-29T09:47:49.978Z,101783.03
2022-07-29T09:50:17.509Z,101781.31
2022-07-29T09:52:49.202Z,101771.56
2022-07-29T09:55:18.414Z,101776.88
2022-07-29T09:57:47.603Z,101769.06
2022-07-29T10:00:16.342Z,101767.69
2022-07-29T10:02:47.259Z,101780.81
2022-07-29T10:05:19.040Z,101771.88
2022-07-29T10:07:51.753Z,101775.88
2022-07-29T10:10:25.179Z,101766.03
2022-07-29T10:12:56.460Z,101773.13
2022-07-29T10:15:27.844Z,101767.22
2022-07-29T10:17:55.532Z,101775.94
2022-07-29T10:20:23.390Z,101774.00
2022-07-29T10:22:53.455Z,101769.91
2022-07-29T10:25:21.350Z,101768.59
2022-07-29T10:27:49.317Z,101777.25
2022-07-29T10:30:17.341Z,101778.31
2022-07-29T10:32:54.059Z,101778.31
2022-07-29T10:35:33.843Z,101766.59
2022-07-29T10:38:03.701Z,101768.91
2022-07-29T10:41:06.795Z,101767.19
2022-07-29T10:43:38.951Z,101765.75
2022-07-29T10:46:10.120Z,101766.38
2022-07-29T10:48:57.513Z,101760.25
2022-07-29T10:51:25.132Z,101764.75
2022-07-29T10:53:53.738Z,101756.75
2022-07-29T10:56:39.237Z,101747.78
2022-07-29T10:59:21.479Z,101752.38
2022-07-29T11:01:53.540Z,101754.25
2022-07-29T11:04:47.144Z,101745.31
2022-07-29T11:07:17.588Z,101739.25
2022-07-29T11:09:46.585Z,101737.38
2022-07-29T11:12:32.429Z,101740.66
2022-07-29T11:15:00.359Z,101727.50
2022-07-29T11:17:27.393Z,101725.88
2022-07-29T11:20:23.448Z,101733.59
2022-07-29T11:22:51.836Z,101723.84
2022-07-29T11:25:50.402Z,101721.94
2022-07-29T11:28:12.292Z,101722.75
2022-07-29T11:30:50.247Z,101734.00
2022-07-29T11:33:54.169Z,101727.78
2022-07-29T11:36:16.906Z,101737.53
2022-07-29T11:38:44.459Z,101730.41
2022-07-29T11:41:31.784Z,101723.53
2022-07-29T11:44:00.785Z,101711.75
2022-07-29T11:46:50.508Z,101725.50
2022-07-29T11:49:22.313Z,101723.56
2022-07-29T11:52:03.151Z,101711.50
2022-07-29T11:54:57.088Z,101705.22
2022-07-29T11:57:22.615Z,101709.88
2022-07-29T11:59:50.784Z,101715.28
2022-07-29T12:02:37.154Z,101699.88
2022-07-29T12:05:10.468Z,101700.66
2022-07-29T12:07:39.090Z,101695.81
2022-07-29T12:10:11.600Z,101695.47
2022-07-29T12:12:52.606Z,101695.31
2022-07-29T12:15:22.404Z,101695.59
2022-07-29T12:17:49.605Z,101686.44
2022-07-29T12:20:27.570Z,101693.59
2022-07-29T12:22:55.621Z,101682.56
2022-07-29T12:25:33.133Z,101685.53
2022-07-29T12:28:02.489Z,101675.31
2022-07-29T12:30:37.058Z,101682.97
2022-07-29T12:33:11.065Z,101693.25
2022-07-29T12:35:38.350Z,101684.66
2022-07-29T12:38:05.432Z,101679.81
2022-07-29T12:40:32.350Z,101676.53
2022-07-29T12:43:10.485Z,101669.94
2022-07-29T12:45:42.168Z,101666.34
2022-07-29T12:48:12.008Z,101666.19
2022-07-29T12:50:54.057Z,101678.16
2022-07-29T12:53:21.224Z,101664.66
2022-07-29T12:55:52.780Z,101669.38
2022-07-29T12:58:32.133Z,101673.38
2022-07-29T13:01:00.944Z,101665.38
2022-07-29T13:03:28.953Z,101669.72
2022-07-29T13:06:02.954Z,101674.38
2022-07-29T13:08:29.841Z,101674.78
2022-07-29T13:10:56.757Z,101672.66
2022-07-29T13:13:24.029Z,101661.25
2022-07-29T13:16:06.258Z,101663.78
2022-07-29T13:18:34.882Z,101665.00
2022-07-29T13:21:12.077Z,101661.13
2022-07-29T13:23:39.320Z,101651.09
2022-07-29T13:26:10.053Z,101663.47
2022-07-29T13:28:36.944Z,101646.28
2022-07-29T13:31:04.393Z,101668.72
2022-07-29T13:33:31.370Z,101653.38
2022-07-29T13:35:58.160Z,101653.78
2022-07-29T13:38:31.099Z,101659.75
2022-07-29T13:40:59.661Z,101655.38
2022-07-29T13:43:26.814Z,101643.13
2022-07-29T13:45:53.656Z,101642.00
2022-07-29T13:48:20.721Z,101636.84
2022-07-29T13:50:49.017Z,101633.34
2022-07-29T13:53:17.835Z,101630.63
2022-07-29T13:55:45.160Z,101637.19
2022-07-29T13:58:12.262Z,101632.97
2022-07-29T14:00:39.171Z,101629.97
2022-07-29T14:03:07.444Z,101629.69
2022-07-29T14:05:34.558Z,101628.38
2022-07-29T14:08:01.398Z,101625.75
2022-07-29T14:10:28.269Z,101620.53
2022-07-29T14:12:55.513Z,101621.50
2022-07-29T14:15:22.331Z,101614.56
2022-07-29T14:17:49.138Z,101622.31
2022-07-29T14:20:17.182Z,101611.06
2022-07-29T14:22:45.056Z,101610.56
2022-07-29T14:25:14.322Z,101606.19
2022-07-29T14:27:43.806Z,101601.84
2022-07-29T14:30:11.285Z,101609.16
2022-07-29T14:32:38.052Z,101593.72
2022-07-29T14:35:05.758Z,101597.09
2022-07-29T14:37:39.043Z,101594.47
2022-07-29T14:40:08.147Z,101594.66
2022-07-29T14:42:35.060Z,101589.78
2022-07-29T14:45:02.091Z,101591.16
2022-07-29T14:47:29.377Z,101596.47
2022-07-29T14:49:56.203Z,101586.97
2022-07-29T14:52:23.005Z,101580.34
2022-07-29T14:54:50.508Z,101591.84
2022-07-29T14:57:17.725Z,101584.34
2022-07-29T14:59:44.840Z,101587.03
2022-07-29T15:02:11.958Z,101584.25
2022-07-29T15:04:40.402Z,101580.72
2022-07-29T15:07:07.540Z,101591.13
2022-07-29T15:09:40.161Z,101590.56
2022-07-29T15:12:07.861Z,101597.47
2022-07-29T15:14:35.062Z,101586.84
2022-07-29T15:17:02.405Z,101599.69
2022-07-29T15:19:31.603Z,101589.56
2022-07-29T15:21:59.723Z,101579.38
2022-07-29T15:24:27.036Z,101593.06
2022-07-29T15:26:54.878Z,101586.22
2022-07-29T15:29:22.453Z,101587.06
2022-07-29T15:31:49.797Z,101586.50
2022-07-29T15:34:16.745Z,101593.44
2022-07-29T15:36:52.781Z,101580.94
2022-07-29T15:39:21.364Z,101585.75
2022-07-29T15:41:48.321Z,101583.16
2022-07-29T15:44:15.065Z,101571.47
2022-07-29T15:47:01.584Z,101582.66
2022-07-29T15:49:47.915Z,101576.34
2022-07-29T15:52:26.190Z,101566.94
2022-07-29T15:54:54.360Z,101563.88
2022-07-29T15:57:21.843Z,101570.88
2022-07-29T15:59:48.725Z,101571.16
2022-07-29T16:02:15.750Z,101568.78
2022-07-29T16:04:42.903Z,101569.53
2022-07-29T16:07:09.756Z,101576.13
2022-07-29T16:09:36.628Z,101577.41
2022-07-29T16:12:14.970Z,101566.38
2022-07-29T16:14:43.442Z,101562.06
2022-07-29T16:17:14.960Z,101565.97
2022-07-29T16:19:42.835Z,101553.50
2022-07-29T16:22:09.676Z,101552.91
2022-07-29T16:24:37.403Z,101557.81
2022-07-29T16:27:04.719Z,101552.63
2022-07-29T16:29:31.560Z,101553.63
2022-07-29T16:31:58.829Z,101541.78
2022-07-29T16:34:25.700Z,101546.28
2022-07-29T16:36:52.568Z,101536.09
2022-07-29T16:39:19.623Z,101535.56
2022-07-29T16:41:46.432Z,101540.47
2022-07-29T16:44:13.332Z,101538.09
2022-07-29T16:46:41.434Z,101544.34
2022-07-29T16:49:08.392Z,101543.00
2022-07-29T16:51:35.316Z,101532.44
2022-07-29T16:54:02.709Z,101537.28
2022-07-29T16:56:29.720Z,101534.97
2022-07-29T16:58:57.944Z,101537.47
2022-07-29T17:01:24.998Z,101537.97
2022-07-29T17:04:07.113Z,101527.72
2022-07-29T17:06:39.819Z,101526.38
2022-07-29T17:09:07.416Z,101524.69
2022-07-29T17:11:53.020Z,101521.50
2022-07-29T17:14:24.177Z,101523.34
2022-07-29T17:17:00.495Z,101530.91
2022-07-29T17:19:28.579Z,101526.56
2022-07-29T17:22:02.337Z,101530.09
2022-07-29T17:24:34.332Z,101533.25
2022-07-29T17:27:02.227Z,101533.44
2022-07-29T17:29:29.115Z,101537.28
2022-07-29T17:31:57.882Z,101534.59
2022-07-29T17:34:24.736Z,101528.56
2022-07-29T17:36:51.761Z,101529.22
2022-07-29T17:39:18.892Z,101533.38
2022-07-29T17:41:46.939Z,101536.84
2022-07-29T17:44:13.783Z,101532.13
2022-07-29T17:46:40.952Z,101533.34
2022-07-29T17:49:07.886Z,101538.28
2022-07-29T17:51:34.801Z,101533.63
2022-07-29T17:54:01.991Z,101540.69
2022-07-29T17:56:29.070Z,101545.31
2022-07-29T17:58:56.328Z,101541.22
2022-07-29T18:01:24.188Z,101542.03
2022-07-29T18:03:51.140Z,101541.75
2022-07-29T18:06:18.087Z,101545.31
2022-07-29T18:08:47.646Z,101538.81
2022-07-29T18:11:15.190Z,101537.38
2022-07-29T18:13:43.164Z,101544.03
2022-07-29T18:16:10.280Z,101544.50
2022-07-29T18:18:37.321Z,101540.38
2022-07-29T18:21:04.564Z,101539.25
2022-07-29T18:23:32.074Z,101543.78
2022-07-29T18:25:59.069Z,101550.00
2022-07-29T18:28:25.848Z,101555.25
2022-07-29T18:30:53.241Z,101558.97
2022-07-29T18:33:22.149Z,101559.41
2022-07-29T18:35:51.750Z,101555.94
2022-07-29T18:38:19.325Z,101561.19
2022-07-29T18:40:46.358Z,101565.38
2022-07-29T18:43:13.848Z,101570.56
2022-07-29T18:45:42.566Z,101563.81
2022-07-29T18:48:12.821Z,101564.66
2022-07-29T18:50:41.157Z,101561.97
2022-07-29T18:53:08.560Z,101562.06
2022-07-29T18:55:35.462Z,101568.78
2022-07-29T18:58:02.275Z,101574.66
2022-07-29T19:00:30.611Z,101580.25
2022-07-29T19:02:57.587Z,101576.72
2022-07-29T19:05:25.587Z,101579.09
2022-07-29T19:07:54.874Z,101581.91
2022-07-29T19:10:21.820Z,101582.63
2022-07-29T19:12:48.864Z,101575.19
2022-07-29T19:15:19.902Z,101590.47
2022-07-29T19:17:48.057Z,101592.13
2022-07-29T19:20:15.851Z,101599.16
2022-07-29T19:22:42.859Z,101590.03
2022-07-29T19:25:10.197Z,101597.97
2022-07-29T19:27:37.494Z,101595.19
2022-07-29T19:30:07.049Z,101601.97
2022-07-29T19:32:34.017Z,101598.75
2022-07-29T19:35:19.440Z,101602.75
2022-07-29T19:37:46.522Z,101609.22
2022-07-29T19:40:13.444Z,101604.31
2022-07-29T19:42:40.266Z,101607.66
2022-07-29T19:45:07.554Z,101612.31
2022-07-29T19:47:34.453Z,101604.19
2022-07-29T19:50:01.397Z,101610.94
2022-07-29T19:52:28.851Z,101609.13
2022-07-29T19:54:55.949Z,101607.69
2022-07-29T19:57:22.759Z,101608.41
2022-07-29T19:59:51.266Z,101617.13
2022-07-29T20:02:18.487Z,101613.72
2022-07-29T20:04:45.480Z,101615.47
2022-07-29T20:07:13.651Z,101609.22
2022-07-29T20:09:41.011Z,101610.06
2022-07-29T20:12:08.884Z,101605.97
2022-07-29T20:14:36.254Z,101611.09
2022-07-29T20:17:03.425Z,101619.16
2022-07-29T20:19:33.094Z,101607.06
2022-07-29T20:22:01.704Z,101617.19
2022-07-29T20:24:30.022Z,101620.25
2022-07-29T20:26:57.863Z,101620.53
2022-07-29T20:29:26.477Z,101620.53
2022-07-29T20:31:56.709Z,101614.06
2022-07-29T20:34:24.615Z,101619.22
2022-07-29T20:36:52.630Z,101623.56
2022-07-29T20:39:23.497Z,101624.94
2022-07-29T20:41:51.405Z,101610.91
2022-07-29T20:44:23.750Z,101622.97
2022-07-29T20:46:51.275Z,101622.22
2022-07-29T20:49:18.577Z,101619.69
2022-07-29T20:51:46.757Z,101623.72
2022-07-29T20:54:13.653Z,101632.84
2022-07-29T20:56:42.062Z,101626.44
2022-07-29T20:59:09.885Z,101628.91
2022-07-29T21:01:37.151Z,101629.06
2022-07-29T21:04:04.405Z,101636.47
2022-07-29T21:06:31.795Z,101640.13
2022-07-29T21:08:59.919Z,101630.56
2022-07-29T21:11:44.542Z,101619.84
2022-07-29T21:14:29.674Z,101628.81
2022-07-29T21:16:57.472Z,101635.25
2022-07-29T21:19:24.679Z,101627.97
2022-07-29T21:21:51.495Z,101626.81
2022-07-29T21:24:19.249Z,101630.97
2022-07-29T21:26:54.476Z,101631.22
2022-07-29T21:29:33.239Z,101628.13
2022-07-29T21:32:00.345Z,101635.38
2022-07-29T21:34:28.142Z,101633.75
2022-07-29T21:36:55.079Z,101638.34
2022-07-29T21:39:22.451Z,101633.53
2022-07-29T21:41:49.525Z,101636.56
2022-07-29T21:44:16.302Z,101645.88
2022-07-29T21:46:43.396Z,101645.75
2022-07-29T21:49:10.201Z,101638.59
2022-07-29T21:51:37.033Z,101642.75
2022-07-29T21:54:04.627Z,101635.47
2022-07-29T21:56:31.688Z,101641.06
2022-07-29T21:58:58.549Z,101649.03
2022-07-29T22:01:25.775Z,101641.78
2022-07-29T22:03:52.694Z,101647.63
2022-07-29T22:06:19.769Z,101650.16
2022-07-29T22:08:48.136Z,101643.72
2022-07-29T22:11:14.999Z,101646.63
2022-07-29T22:13:42.258Z,101647.50
2022-07-29T22:16:10.362Z,101643.38
2022-07-29T22:18:37.133Z,101642.88
2022-07-29T22:21:04.258Z,101642.31
2022-07-29T22:23:31.404Z,101642.47
2022-07-29T22:25:58.243Z,101640.28
2022-07-29T22:28:25.140Z,101635.94
2022-07-29T22:30:52.213Z,101635.53
2022-07-29T22:33:19.345Z,101642.94
2022-07-29T22:35:48.334Z,101634.34
2022-07-29T22:38:19.310Z,101633.75
2022-07-29T22:40:48.770Z,101632.31
2022-07-29T22:43:17.768Z,101631.94
2022-07-29T22:45:44.745Z,101625.66
2022-07-29T22:48:11.766Z,101629.31
2022-07-29T22:50:39.300Z,101623.63
2022-07-29T22:53:06.263Z,101625.44
2022-07-29T22:55:33.327Z,101613.94
2022-07-29T22:58:00.521Z,101621.59
2022-07-29T23:00:27.336Z,101616.50
2022-07-29T23:02:54.511Z,101616.50
2022-07-29T23:05:21.510Z,101617.00
2022-07-29T23:07:48.295Z,101609.75
2022-07-29T23:10:15.163Z,101612.44
2022-07-29T23:12:42.301Z,101609.16
2022-07-29T23:15:09.212Z,101609.66
2022-07-29T23:17:36.786Z,101608.06
2022-07-29T23:20:08.094Z,101598.38
2022-07-29T23:22:35.744Z,101595.34
2022-07-29T23:25:02.878Z,101603.44
2022-07-29T23:27:29.996Z,101608.63
2022-07-29T23:29:56.836Z,101613.38
2022-07-29T23:32:23.643Z,101610.94
2022-07-29T23:34:50.712Z,101612.88
2022-07-29T23:37:17.507Z,101605.25
2022-07-29T23:39:44.250Z,101606.13
2022-07-29T23:42:11.357Z,101602.72
2022-07-29T23:44:38.331Z,101599.34
2022-07-29T23:47:05.340Z,101601.50
2022-07-29T23:49:32.401Z,101597.41
2022-07-29T23:51:59.228Z,101600.81
2022-07-29T23:54:26.199Z,101594.97
2022-07-29T23:56:53.398Z,101596.06
2022-07-29T23:59:20.191Z,101599.22
